aviador You're here:

YCCY Decoded Metar

in
Report Time2017-08-24 08:00:00
UTC Time2017-08-24 08:52:06
Flight Rules unknown UNKNOWN
Wind190° at 15 kt
W.Decomp.*RWY 24: 9.6 kt HW 11.5 kt LCW
RWY 12: 5.1 kt HW 14.1 kt RCW
W.Rank190° ranks 1
Current wind is above 190° avg. (8.6)
VisibilityN/A
Phenomena:N/A
Clouds:N/A
Expected CloudBase > 11,200 ft AGL from Temp-Dew spread
CeilingNone
Temp26°C
Dew Point-2°C (16% RH)
AAT18.4°C
QNH1016 hPa
Raw Report
METAR YCCY 240800Z AUTO 19015KT //// // ////// 26/M02 Q1016=

Extra information for YCCY:More info

Social comments